sensor_id;sensor_type;location;lat;lon;timestamp;pressure;altitude;pressure_sealevel;temperature;humidity
60583;BME280;46415;47.536;19.066;2023-08-24T00:02:02;-18841.72;;;22.65;100.00
60583;BME280;46415;47.536;19.066;2023-08-24T00:05:05;-18840.63;;;22.61;100.00
60583;BME280;46415;47.536;19.066;2023-08-24T00:08:09;-18840.63;;;22.61;100.00
60583;BME280;46415;47.536;19.066;2023-08-24T00:11:12;-18839.97;;;22.59;100.00
60583;BME280;46415;47.536;19.066;2023-08-24T00:14:17;-18838.87;;;22.55;100.00
60583;BME280;46415;47.536;19.066;2023-08-24T00:17:20;-18837.94;;;22.51;100.00
60583;BME280;46415;47.536;19.066;2023-08-24T00:20:22;-18835.91;;;22.44;100.00
60583;BME280;46415;47.536;19.066;2023-08-24T00:23:25;-18833.47;;;22.34;100.00
60583;BME280;46415;47.536;19.066;2023-08-24T00:26:27;-18832.66;;;22.31;100.00
60583;BME280;46415;47.536;19.066;2023-08-24T00:29:30;-18831.97;;;22.29;100.00
60583;BME280;46415;47.536;19.066;2023-08-24T00:32:33;-18831.28;;;22.26;100.00
60583;BME280;46415;47.536;19.066;2023-08-24T00:35:37;-18830.88;;;22.25;100.00
60583;BME280;46415;47.536;19.066;2023-08-24T00:38:39;-18830.75;;;22.24;100.00
60583;BME280;46415;47.536;19.066;2023-08-24T00:41:42;-18830.06;;;22.22;100.00
60583;BME280;46415;47.536;19.066;2023-08-24T00:44:45;-18829.81;;;22.21;100.00
60583;BME280;46415;47.536;19.066;2023-08-24T00:47:47;-18828.31;;;22.15;100.00
60583;BME280;46415;47.536;19.066;2023-08-24T00:50:52;-18827.78;;;22.13;100.00
60583;BME280;46415;47.536;19.066;2023-08-24T00:53:55;-18828.44;;;22.16;100.00
60583;BME280;46415;47.536;19.066;2023-08-24T00:56:59;-18828.84;;;22.17;100.00
60583;BME280;46415;47.536;19.066;2023-08-24T01:00:03;-18829.81;;;22.21;100.00
60583;BME280;46415;47.536;19.066;2023-08-24T01:03:09;-18829.53;;;22.20;100.00
60583;BME280;46415;47.536;19.066;2023-08-24T01:06:12;-18828.31;;;22.15;100.00
60583;BME280;46415;47.536;19.066;2023-08-24T01:09:14;-18827.09;;;22.11;100.00
60583;BME280;46415;47.536;19.066;2023-08-24T01:12:26;-18826.28;;;22.08;100.00
60583;BME280;46415;47.536;19.066;2023-08-24T01:18:40;-18830.22;;;22.22;100.00
60583;BME280;46415;47.536;19.066;2023-08-24T01:21:45;-18828.84;;;22.17;100.00
60583;BME280;46415;47.536;19.066;2023-08-24T01:24:51;-18827.22;;;22.11;100.00
60583;BME280;46415;47.536;19.066;2023-08-24T01:27:55;-18825.19;;;22.04;100.00
60583;BME280;46415;47.536;19.066;2023-08-24T01:30:59;-18824.78;;;22.02;100.00
60583;BME280;46415;47.536;19.066;2023-08-24T01:34:01;-18824.53;;;22.01;100.00
60583;BME280;46415;47.536;19.066;2023-08-24T01:37:07;-18821.53;;;21.90;100.00
60583;BME280;46415;47.536;19.066;2023-08-24T01:40:15;-18820.72;;;21.87;100.00
60583;BME280;46415;47.536;19.066;2023-08-24T01:43:20;-18819.91;;;21.84;100.00
60583;BME280;46415;47.536;19.066;2023-08-24T01:46:43;-18820.44;;;21.86;100.00
60583;BME280;46415;47.536;19.066;2023-08-24T01:49:47;-18821.00;;;21.88;100.00
60583;BME280;46415;47.536;19.066;2023-08-24T01:52:50;-18822.06;;;21.92;100.00
60583;BME280;46415;47.536;19.066;2023-08-24T01:55:54;-18822.75;;;21.94;100.00
60583;BME280;46415;47.536;19.066;2023-08-24T01:58:56;-18823.44;;;21.97;100.00
60583;BME280;46415;47.536;19.066;2023-08-24T02:01:59;-18821.00;;;21.88;100.00
60583;BME280;46415;47.536;19.066;2023-08-24T02:05:02;-18819.63;;;21.83;100.00
60583;BME280;46415;47.536;19.066;2023-08-24T02:08:05;-18819.09;;;21.81;100.00
60583;BME280;46415;47.536;19.066;2023-08-24T02:11:08;-18818.81;;;21.80;100.00
60583;BME280;46415;47.536;19.066;2023-08-24T02:14:10;-18821.00;;;21.88;100.00
60583;BME280;46415;47.536;19.066;2023-08-24T02:17:13;-18824.25;;;22.00;100.00
60583;BME280;46415;47.536;19.066;2023-08-24T02:20:16;-18822.22;;;21.92;100.00
60583;BME280;46415;47.536;19.066;2023-08-24T02:23:19;-18822.34;;;21.93;100.00
60583;BME280;46415;47.536;19.066;2023-08-24T02:26:21;-18822.06;;;21.92;100.00
60583;BME280;46415;47.536;19.066;2023-08-24T02:29:24;-18824.66;;;22.02;100.00
60583;BME280;46415;47.536;19.066;2023-08-24T02:32:26;-18823.56;;;21.97;100.00
60583;BME280;46415;47.536;19.066;2023-08-24T02:35:29;-18821.81;;;21.91;100.00
60583;BME280;46415;47.536;19.066;2023-08-24T02:38:31;-18820.72;;;21.87;100.00
60583;BME280;46415;47.536;19.066;2023-08-24T02:41:34;-18818.69;;;21.79;100.00
60583;BME280;46415;47.536;19.066;2023-08-24T02:44:37;-18817.34;;;21.74;100.00
60583;BME280;46415;47.536;19.066;2023-08-24T02:47:40;-18816.13;;;21.70;100.00
60583;BME280;46415;47.536;19.066;2023-08-24T02:50:45;-18815.56;;;21.68;100.00
60583;BME280;46415;47.536;19.066;2023-08-24T02:53:48;-18815.44;;;21.67;100.00
60583;BME280;46415;47.536;19.066;2023-08-24T02:56:50;-18815.16;;;21.66;100.00
60583;BME280;46415;47.536;19.066;2023-08-24T02:59:53;-18815.31;;;21.67;100.00
60583;BME280;46415;47.536;19.066;2023-08-24T03:02:57;-18814.47;;;21.64;100.00
60583;BME280;46415;47.536;19.066;2023-08-24T03:06:04;-18813.25;;;21.59;100.00
60583;BME280;46415;47.536;19.066;2023-08-24T03:09:07;-18811.50;;;21.52;100.00
60583;BME280;46415;47.536;19.066;2023-08-24T03:12:10;-18810.28;;;21.48;100.00
60583;BME280;46415;47.536;19.066;2023-08-24T03:15:12;-18809.59;;;21.45;100.00
60583;BME280;46415;47.536;19.066;2023-08-24T03:18:15;-18810.69;;;21.49;100.00
60583;BME280;46415;47.536;19.066;2023-08-24T03:21:18;-18810.69;;;21.49;100.00
60583;BME280;46415;47.536;19.066;2023-08-24T03:24:21;-18810.16;;;21.47;100.00
60583;BME280;46415;47.536;19.066;2023-08-24T03:27:23;-18808.53;;;21.41;100.00
60583;BME280;46415;47.536;19.066;2023-08-24T03:30:26;-18808.53;;;21.41;100.00
60583;BME280;46415;47.536;19.066;2023-08-24T03:33:28;-18810.00;;;21.47;100.00
60583;BME280;46415;47.536;19.066;2023-08-24T03:36:31;-18811.63;;;21.53;100.00
60583;BME280;46415;47.536;19.066;2023-08-24T03:39:36;-18810.16;;;21.47;100.00
60583;BME280;46415;47.536;19.066;2023-08-24T03:42:39;-18808.37;;;21.41;100.00
60583;BME280;46415;47.536;19.066;2023-08-24T03:45:42;-18806.50;;;21.34;100.00
60583;BME280;46415;47.536;19.066;2023-08-24T03:48:45;-18805.53;;;21.30;100.00
60583;BME280;46415;47.536;19.066;2023-08-24T03:51:48;-18806.22;;;21.33;100.00
60583;BME280;46415;47.536;19.066;2023-08-24T03:54:51;-18805.94;;;21.32;100.00
60583;BME280;46415;47.536;19.066;2023-08-24T03:57:54;-18805.00;;;21.28;100.00
60583;BME280;46415;47.536;19.066;2023-08-24T04:00:59;-18804.06;;;21.25;100.00
60583;BME280;46415;47.536;19.066;2023-08-24T04:04:04;-18802.97;;;21.21;100.00
60583;BME280;46415;47.536;19.066;2023-08-24T04:07:06;-18802.41;;;21.18;100.00
60583;BME280;46415;47.536;19.066;2023-08-24T04:10:09;-18803.22;;;21.22;100.00
60583;BME280;46415;47.536;19.066;2023-08-24T04:13:12;-18803.38;;;21.22;100.00
60583;BME280;46415;47.536;19.066;2023-08-24T04:16:14;-18803.50;;;21.23;100.00
60583;BME280;46415;47.536;19.066;2023-08-24T04:19:17;-18803.78;;;21.24;100.00
60583;BME280;46415;47.536;19.066;2023-08-24T04:22:19;-18804.19;;;21.25;100.00
60583;BME280;46415;47.536;19.066;2023-08-24T04:25:22;-18807.16;;;21.36;100.00
60583;BME280;46415;47.536;19.066;2023-08-24T04:28:24;-18807.44;;;21.37;100.00
60583;BME280;46415;47.536;19.066;2023-08-24T04:31:27;-18807.72;;;21.38;100.00
60583;BME280;46415;47.536;19.066;2023-08-24T04:34:29;-18808.53;;;21.41;100.00
60583;BME280;46415;47.536;19.066;2023-08-24T04:37:32;-18811.38;;;21.52;100.00
60583;BME280;46415;47.536;19.066;2023-08-24T04:40:53;-18812.84;;;21.57;100.00
60583;BME280;46415;47.536;19.066;2023-08-24T04:43:56;-18814.47;;;21.64;100.00
60583;BME280;46415;47.536;19.066;2023-08-24T04:46:59;-18817.34;;;21.74;100.00
60583;BME280;46415;47.536;19.066;2023-08-24T04:50:01;-18817.88;;;21.76;100.00
60583;BME280;46415;47.536;19.066;2023-08-24T04:53:04;-18820.59;;;21.86;100.00
60583;BME280;46415;47.536;19.066;2023-08-24T04:56:06;-18822.63;;;21.94;100.00
60583;BME280;46415;47.536;19.066;2023-08-24T04:59:09;-18822.47;;;21.93;100.00
60583;BME280;46415;47.536;19.066;2023-08-24T05:02:12;-18824.25;;;22.00;100.00
60583;BME280;46415;47.536;19.066;2023-08-24T05:05:15;-18826.41;;;22.08;100.00
60583;BME280;46415;47.536;19.066;2023-08-24T05:08:17;-18831.03;;;22.25;100.00
60583;BME280;46415;47.536;19.066;2023-08-24T05:11:22;-18829.13;;;22.18;100.00
60583;BME280;46415;47.536;19.066;2023-08-24T05:14:24;-18830.75;;;22.24;100.00
60583;BME280;46415;47.536;19.066;2023-08-24T05:17:27;-18832.25;;;22.30;100.00
60583;BME280;46415;47.536;19.066;2023-08-24T05:20:30;-18836.72;;;22.47;100.00
60583;BME280;46415;47.536;19.066;2023-08-24T05:23:33;-18841.84;;;22.66;100.00
60583;BME280;46415;47.536;19.066;2023-08-24T05:26:36;-18841.44;;;22.64;100.00
60583;BME280;46415;47.536;19.066;2023-08-24T05:29:39;-18847.00;;;22.85;100.00
60583;BME280;46415;47.536;19.066;2023-08-24T05:32:41;-18847.81;;;22.88;100.00
60583;BME280;46415;47.536;19.066;2023-08-24T05:35:45;-18850.53;;;22.98;100.00
60583;BME280;46415;47.536;19.066;2023-08-24T05:38:47;-18853.50;;;23.09;100.00
60583;BME280;46415;47.536;19.066;2023-08-24T05:42:07;-18857.28;;;23.24;100.00
60583;BME280;46415;47.536;19.066;2023-08-24T05:45:10;-18863.66;;;23.47;100.00
60583;BME280;46415;47.536;19.066;2023-08-24T05:48:14;-18862.44;;;23.43;100.00
60583;BME280;46415;47.536;19.066;2023-08-24T05:51:17;-18864.47;;;23.50;100.00
60583;BME280;46415;47.536;19.066;2023-08-24T05:54:19;-18867.03;;;23.60;100.00
60583;BME280;46415;47.536;19.066;2023-08-24T05:57:22;-18869.47;;;23.69;100.00
60583;BME280;46415;47.536;19.066;2023-08-24T06:00:25;-18868.41;;;23.65;100.00
60583;BME280;46415;47.536;19.066;2023-08-24T06:03:27;-18870.69;;;23.74;100.00
60583;BME280;46415;47.536;19.066;2023-08-24T06:06:30;-18873.66;;;23.85;100.00
60583;BME280;46415;47.536;19.066;2023-08-24T06:09:32;-18879.22;;;24.06;100.00
60583;BME280;46415;47.536;19.066;2023-08-24T06:12:35;-18882.88;;;24.19;100.00
60583;BME280;46415;47.536;19.066;2023-08-24T06:15:37;-18887.31;;;24.36;100.00
60583;BME280;46415;47.536;19.066;2023-08-24T06:18:40;-18892.06;;;24.54;100.00
60583;BME280;46415;47.536;19.066;2023-08-24T06:21:42;-18893.41;;;24.59;100.00
60583;BME280;46415;47.536;19.066;2023-08-24T06:24:45;-18894.22;;;24.62;100.00
60583;BME280;46415;47.536;19.066;2023-08-24T06:27:48;-18899.50;;;24.81;100.00
60583;BME280;46415;47.536;19.066;2023-08-24T06:30:51;-18904.09;;;24.99;100.00
60583;BME280;46415;47.536;19.066;2023-08-24T06:33:53;-18906.91;;;25.09;100.00
60583;BME280;46415;47.536;19.066;2023-08-24T06:36:56;-18912.88;;;25.32;100.00
60583;BME280;46415;47.536;19.066;2023-08-24T06:40:03;-18918.25;;;25.52;100.00
60583;BME280;46415;47.536;19.066;2023-08-24T06:43:06;-18921.91;;;25.66;100.00
60583;BME280;46415;47.536;19.066;2023-08-24T06:46:09;-18926.37;;;25.82;100.00
60583;BME280;46415;47.536;19.066;2023-08-24T06:49:12;-18928.66;;;25.91;100.00
60583;BME280;46415;47.536;19.066;2023-08-24T06:52:14;-18932.31;;;26.05;100.00
60583;BME280;46415;47.536;19.066;2023-08-24T06:55:17;-18933.25;;;26.08;100.00
60583;BME280;46415;47.536;19.066;2023-08-24T06:58:19;-18936.22;;;26.19;100.00
60583;BME280;46415;47.536;19.066;2023-08-24T07:01:22;-18933.91;;;26.11;99.21
60583;BME280;46415;47.536;19.066;2023-08-24T07:04:25;-18935.41;;;26.16;100.00
60583;BME280;46415;47.536;19.066;2023-08-24T07:07:28;-18938.91;;;26.29;99.15
60583;BME280;46415;47.536;19.066;2023-08-24T07:10:31;-18942.28;;;26.42;97.69
60583;BME280;46415;47.536;19.066;2023-08-24T07:13:34;-18945.38;;;26.54;97.77
60583;BME280;46415;47.536;19.066;2023-08-24T07:16:37;-18948.22;;;26.64;95.82
60583;BME280;46415;47.536;19.066;2023-08-24T07:19:39;-18948.63;;;26.66;96.78
60583;BME280;46415;47.536;19.066;2023-08-24T07:22:42;-18949.16;;;26.68;95.14
60583;BME280;46415;47.536;19.066;2023-08-24T07:25:44;-18952.13;;;26.79;94.10
60583;BME280;46415;47.536;19.066;2023-08-24T07:28:47;-18954.41;;;26.88;94.31
60583;BME280;46415;47.536;19.066;2023-08-24T07:31:49;-18957.78;;;27.00;93.61
60583;BME280;46415;47.536;19.066;2023-08-24T07:34:53;-18961.56;;;27.14;92.15
60583;BME280;46415;47.536;19.066;2023-08-24T07:37:55;-18965.75;;;27.30;89.86
60583;BME280;46415;47.536;19.066;2023-08-24T07:40:58;-18967.50;;;27.37;89.47
60583;BME280;46415;47.536;19.066;2023-08-24T07:44:01;-18966.56;;;27.33;90.19
60583;BME280;46415;47.536;19.066;2023-08-24T07:47:03;-18966.69;;;27.34;87.42
60583;BME280;46415;47.536;19.066;2023-08-24T07:50:07;-18969.12;;;27.43;84.83
60583;BME280;46415;47.536;19.066;2023-08-24T07:53:09;-18972.34;;;27.55;86.14
60583;BME280;46415;47.536;19.066;2023-08-24T07:56:12;-18975.31;;;27.66;83.49
60583;BME280;46415;47.536;19.066;2023-08-24T07:59:15;-18975.03;;;27.65;84.72
60583;BME280;46415;47.536;19.066;2023-08-24T08:02:17;-18976.53;;;27.71;82.08
60583;BME280;46415;47.536;19.066;2023-08-24T08:05:20;-18980.16;;;27.84;78.87
60583;BME280;46415;47.536;19.066;2023-08-24T08:08:23;-18980.69;;;27.86;79.05
60583;BME280;46415;47.536;19.066;2023-08-24T08:11:25;-18983.25;;;27.96;81.63
60583;BME280;46415;47.536;19.066;2023-08-24T08:14:28;-18985.81;;;28.06;77.21
60583;BME280;46415;47.536;19.066;2023-08-24T08:17:31;-18988.78;;;28.17;68.91
60583;BME280;46415;47.536;19.066;2023-08-24T08:20:35;-18992.53;;;28.31;67.68
60583;BME280;46415;47.536;19.066;2023-08-24T08:23:38;-18994.97;;;28.40;62.94
60583;BME280;46415;47.536;19.066;2023-08-24T08:26:41;-18996.84;;;28.47;61.54
60583;BME280;46415;47.536;19.066;2023-08-24T08:29:43;-19001.84;;;28.66;63.80
60583;BME280;46415;47.536;19.066;2023-08-24T08:32:46;-19004.53;;;28.76;64.30
60583;BME280;46415;47.536;19.066;2023-08-24T08:35:48;-19007.09;;;28.86;61.66
60583;BME280;46415;47.536;19.066;2023-08-24T08:38:51;-19010.44;;;28.98;61.35
60583;BME280;46415;47.536;19.066;2023-08-24T08:41:53;-19004.94;;;28.77;62.04
60583;BME280;46415;47.536;19.066;2023-08-24T08:44:56;-19006.00;;;28.81;63.68
60583;BME280;46415;47.536;19.066;2023-08-24T08:47:59;-19012.72;;;29.07;63.62
60583;BME280;46415;47.536;19.066;2023-08-24T08:51:02;-19015.16;;;29.16;63.62
60583;BME280;46415;47.536;19.066;2023-08-24T08:54:05;-19015.81;;;29.18;61.53
60583;BME280;46415;47.536;19.066;2023-08-24T08:57:07;-19017.31;;;29.24;61.59
60583;BME280;46415;47.536;19.066;2023-08-24T09:00:10;-19017.56;;;29.25;63.06
60583;BME280;46415;47.536;19.066;2023-08-24T09:03:18;-19016.63;;;29.21;61.84
60583;BME280;46415;47.536;19.066;2023-08-24T09:06:21;-19017.56;;;29.25;59.54
60583;BME280;46415;47.536;19.066;2023-08-24T09:09:25;-19020.25;;;29.35;57.85
60583;BME280;46415;47.536;19.066;2023-08-24T09:12:30;-19021.47;;;29.40;58.10
60583;BME280;46415;47.536;19.066;2023-08-24T09:15:36;-19020.66;;;29.37;59.89
60583;BME280;46415;47.536;19.066;2023-08-24T09:18:39;-19025.62;;;29.55;60.96
60583;BME280;46415;47.536;19.066;2023-08-24T09:21:42;-19025.09;;;29.53;58.90
60583;BME280;46415;47.536;19.066;2023-08-24T09:24:45;-19027.38;;;29.62;57.82
60583;BME280;46415;47.536;19.066;2023-08-24T09:27:57;-19031.16;;;29.76;58.70
60583;BME280;46415;47.536;19.066;2023-08-24T09:31:00;-19031.97;;;29.79;56.41
60583;BME280;46415;47.536;19.066;2023-08-24T09:34:04;-19032.50;;;29.81;56.06
60583;BME280;46415;47.536;19.066;2023-08-24T09:37:16;-19036.41;;;29.96;56.05
60583;BME280;46415;47.536;19.066;2023-08-24T09:40:24;-19039.34;;;30.07;55.02
60583;BME280;46415;47.536;19.066;2023-08-24T09:43:29;-19041.22;;;30.14;53.20
60583;BME280;46415;47.536;19.066;2023-08-24T09:46:32;-19033.69;;;29.86;53.65
60583;BME280;46415;47.536;19.066;2023-08-24T09:49:35;-19039.06;;;30.06;52.48
60583;BME280;46415;47.536;19.066;2023-08-24T09:52:38;-19040.41;;;30.11;51.47
60583;BME280;46415;47.536;19.066;2023-08-24T09:55:44;-19048.22;;;30.40;51.88
60583;BME280;46415;47.536;19.066;2023-08-24T09:58:47;-19053.84;;;30.62;51.68
60583;BME280;46415;47.536;19.066;2023-08-24T10:01:51;-19058.28;;;30.78;50.39
60583;BME280;46415;47.536;19.066;2023-08-24T10:04:57;-19059.63;;;30.83;49.20
60583;BME280;46415;47.536;19.066;2023-08-24T10:08:01;-19061.09;;;30.89;49.01
60583;BME280;46415;47.536;19.066;2023-08-24T10:11:05;-19057.47;;;30.75;48.84
60583;BME280;46415;47.536;19.066;2023-08-24T10:14:13;-19062.56;;;30.95;49.36
60583;BME280;46415;47.536;19.066;2023-08-24T10:17:18;-19063.50;;;30.98;49.24
60583;BME280;46415;47.536;19.066;2023-08-24T10:20:20;-19068.34;;;31.16;49.37
60583;BME280;46415;47.536;19.066;2023-08-24T10:23:23;-19066.59;;;31.10;49.83
60583;BME280;46415;47.536;19.066;2023-08-24T10:26:26;-19078.25;;;31.54;49.02
60583;BME280;46415;47.536;19.066;2023-08-24T10:29:30;-19076.00;;;31.45;48.38
60583;BME280;46415;47.536;19.066;2023-08-24T10:32:32;-19075.59;;;31.44;48.50
60583;BME280;46415;47.536;19.066;2023-08-24T10:35:35;-19078.94;;;31.56;43.39
60583;BME280;46415;47.536;19.066;2023-08-24T10:38:41;-19077.47;;;31.51;44.01
60583;BME280;46415;47.536;19.066;2023-08-24T10:44:49;-19088.72;;;31.93;41.46
60583;BME280;46415;47.536;19.066;2023-08-24T10:47:54;-19089.13;;;31.95;41.42
60583;BME280;46415;47.536;19.066;2023-08-24T10:54:30;-19085.91;;;31.83;41.53
60583;BME280;46415;47.536;19.066;2023-08-24T10:57:37;-19091.94;;;32.06;41.27
60583;BME280;46415;47.536;19.066;2023-08-24T11:00:48;-19092.88;;;32.09;40.96
60583;BME280;46415;47.536;19.066;2023-08-24T11:03:54;-19087.91;;;31.90;40.76
60583;BME280;46415;47.536;19.066;2023-08-24T11:06:58;-19088.47;;;31.92;41.30
60583;BME280;46415;47.536;19.066;2023-08-24T11:10:13;-19084.56;;;31.78;39.84
60583;BME280;46415;47.536;19.066;2023-08-24T11:13:16;-19085.25;;;31.80;40.87
60583;BME280;46415;47.536;19.066;2023-08-24T11:19:49;-19089.53;;;31.96;38.52
60583;BME280;46415;47.536;19.066;2023-08-24T11:22:53;-19088.19;;;31.91;39.69
60583;BME280;46415;47.536;19.066;2023-08-24T11:25:58;-19091.94;;;32.06;39.79
60583;BME280;46415;47.536;19.066;2023-08-24T11:29:04;-19095.97;;;32.21;40.37
60583;BME280;46415;47.536;19.066;2023-08-24T11:32:07;-19090.72;;;32.01;39.39
60583;BME280;46415;47.536;19.066;2023-08-24T11:35:10;-19095.16;;;32.18;40.31
60583;BME280;46415;47.536;19.066;2023-08-24T11:38:14;-19094.63;;;32.16;39.59
60583;BME280;46415;47.536;19.066;2023-08-24T11:41:17;-19098.91;;;32.32;39.04
60583;BME280;46415;47.536;19.066;2023-08-24T11:44:20;-19097.16;;;32.25;38.90
60583;BME280;46415;47.536;19.066;2023-08-24T11:47:30;-19093.69;;;32.12;39.04
60583;BME280;46415;47.536;19.066;2023-08-24T11:50:33;-19093.28;;;32.11;39.58
60583;BME280;46415;47.536;19.066;2023-08-24T11:53:45;-19095.84;;;32.20;39.17
60583;BME280;46415;47.536;19.066;2023-08-24T11:56:48;-19091.94;;;32.06;39.08
60583;BME280;46415;47.536;19.066;2023-08-24T11:59:51;-19094.09;;;32.14;40.07
60583;BME280;46415;47.536;19.066;2023-08-24T12:02:53;-19091.28;;;32.03;40.02
60583;BME280;46415;47.536;19.066;2023-08-24T12:06:00;-19095.97;;;32.21;40.18
60583;BME280;46415;47.536;19.066;2023-08-24T12:09:06;-19091.41;;;32.03;39.75
60583;BME280;46415;47.536;19.066;2023-08-24T12:12:18;-19083.09;;;31.72;38.98
60583;BME280;46415;47.536;19.066;2023-08-24T12:15:27;-19085.78;;;31.82;39.87
60583;BME280;46415;47.536;19.066;2023-08-24T12:18:30;-19089.66;;;31.97;39.18
60583;BME280;46415;47.536;19.066;2023-08-24T12:21:33;-19092.06;;;32.06;38.24
60583;BME280;46415;47.536;19.066;2023-08-24T12:24:36;-19088.31;;;31.92;37.35
60583;BME280;46415;47.536;19.066;2023-08-24T12:27:38;-19088.72;;;31.93;37.51
60583;BME280;46415;47.536;19.066;2023-08-24T12:30:48;-19086.03;;;31.83;38.18
60583;BME280;46415;47.536;19.066;2023-08-24T12:34:04;-19087.91;;;31.90;37.44
60583;BME280;46415;47.536;19.066;2023-08-24T12:37:07;-19087.91;;;31.90;36.85
60583;BME280;46415;47.536;19.066;2023-08-24T12:40:09;-19089.66;;;31.97;36.17
60583;BME280;46415;47.536;19.066;2023-08-24T12:43:13;-19087.91;;;31.90;38.13
60583;BME280;46415;47.536;19.066;2023-08-24T12:46:15;-19091.94;;;32.06;38.02
60583;BME280;46415;47.536;19.066;2023-08-24T12:49:18;-19091.81;;;32.05;37.54
60583;BME280;46415;47.536;19.066;2023-08-24T12:52:22;-19093.16;;;32.10;36.42
60583;BME280;46415;47.536;19.066;2023-08-24T12:55:25;-19095.97;;;32.21;36.51
60583;BME280;46415;47.536;19.066;2023-08-24T12:58:27;-19095.16;;;32.18;38.02
60583;BME280;46415;47.536;19.066;2023-08-24T13:01:30;-19099.03;;;32.32;37.18
60583;BME280;46415;47.536;19.066;2023-08-24T13:04:32;-19098.66;;;32.31;36.69
60583;BME280;46415;47.536;19.066;2023-08-24T13:07:36;-19098.38;;;32.30;36.73
60583;BME280;46415;47.536;19.066;2023-08-24T13:10:39;-19099.97;;;32.36;36.31
60583;BME280;46415;47.536;19.066;2023-08-24T13:13:41;-19102.94;;;32.47;36.32
60583;BME280;46415;47.536;19.066;2023-08-24T13:16:44;-19100.78;;;32.39;36.42
60583;BME280;46415;47.536;19.066;2023-08-24T13:19:48;-19105.59;;;32.57;36.55
60583;BME280;46415;47.536;19.066;2023-08-24T13:22:53;-19107.22;;;32.63;36.71
60583;BME280;46415;47.536;19.066;2023-08-24T13:25:59;-19106.16;;;32.59;36.64
60583;BME280;46415;47.536;19.066;2023-08-24T13:29:01;-19112.03;;;32.81;36.75
60583;BME280;46415;47.536;19.066;2023-08-24T13:32:04;-19111.50;;;32.79;36.45
60583;BME280;46415;47.536;19.066;2023-08-24T13:35:07;-19105.47;;;32.57;35.88
60583;BME280;46415;47.536;19.066;2023-08-24T13:38:11;-19096.75;;;32.24;36.47
60583;BME280;46415;47.536;19.066;2023-08-24T13:41:14;-19096.75;;;32.24;36.39
60583;BME280;46415;47.536;19.066;2023-08-24T13:44:16;-19095.97;;;32.21;36.16
60583;BME280;46415;47.536;19.066;2023-08-24T13:47:19;-19093.56;;;32.12;36.31
60583;BME280;46415;47.536;19.066;2023-08-24T13:50:24;-19099.97;;;32.36;37.18
60583;BME280;46415;47.536;19.066;2023-08-24T13:53:26;-19099.97;;;32.36;36.46
60583;BME280;46415;47.536;19.066;2023-08-24T13:56:29;-19104.81;;;32.54;35.69
60583;BME280;46415;47.536;19.066;2023-08-24T13:59:32;-19103.47;;;32.49;35.00
60583;BME280;46415;47.536;19.066;2023-08-24T14:02:34;-19100.25;;;32.37;35.32
60583;BME280;46415;47.536;19.066;2023-08-24T14:05:40;-19098.38;;;32.30;35.62
60583;BME280;46415;47.536;19.066;2023-08-24T14:08:42;-19104.41;;;32.53;35.58
60583;BME280;46415;47.536;19.066;2023-08-24T14:11:45;-19106.41;;;32.60;34.87
60583;BME280;46415;47.536;19.066;2023-08-24T14:14:49;-19112.84;;;32.85;35.34
60583;BME280;46415;47.536;19.066;2023-08-24T14:17:51;-19117.38;;;33.02;34.02
60583;BME280;46415;47.536;19.066;2023-08-24T14:20:54;-19117.66;;;33.03;33.85
60583;BME280;46415;47.536;19.066;2023-08-24T14:23:57;-19122.47;;;33.21;32.96
60583;BME280;46415;47.536;19.066;2023-08-24T14:27:00;-19122.34;;;33.20;32.93
60583;BME280;46415;47.536;19.066;2023-08-24T14:30:03;-19121.00;;;33.15;33.12
60583;BME280;46415;47.536;19.066;2023-08-24T14:33:06;-19125.56;;;33.33;34.95
60583;BME280;46415;47.536;19.066;2023-08-24T14:36:09;-19128.63;;;33.44;33.11
60583;BME280;46415;47.536;19.066;2023-08-24T14:39:12;-19132.09;;;33.57;33.09
60583;BME280;46415;47.536;19.066;2023-08-24T14:42:16;-19130.25;;;33.50;33.55
60583;BME280;46415;47.536;19.066;2023-08-24T14:45:18;-19136.94;;;33.76;33.16
60583;BME280;46415;47.536;19.066;2023-08-24T14:48:21;-19138.81;;;33.83;32.82
60583;BME280;46415;47.536;19.066;2023-08-24T14:51:23;-19141.88;;;33.94;33.33
60583;BME280;46415;47.536;19.066;2023-08-24T14:54:26;-19146.97;;;34.14;32.97
60583;BME280;46415;47.536;19.066;2023-08-24T14:57:29;-19147.09;;;34.14;31.77
60583;BME280;46415;47.536;19.066;2023-08-24T15:00:31;-19145.22;;;34.07;32.50
60583;BME280;46415;47.536;19.066;2023-08-24T15:03:35;-19158.44;;;34.57;31.68
60583;BME280;46415;47.536;19.066;2023-08-24T15:06:38;-19178.09;;;35.32;31.09
60583;BME280;46415;47.536;19.066;2023-08-24T15:09:40;-19204.22;;;36.31;30.70
60583;BME280;46415;47.536;19.066;2023-08-24T15:12:44;-19209.03;;;36.49;28.87
60583;BME280;46415;47.536;19.066;2023-08-24T15:15:47;-19215.28;;;36.73;28.22
60583;BME280;46415;47.536;19.066;2023-08-24T15:18:50;-19240.19;;;37.68;26.96
60583;BME280;46415;47.536;19.066;2023-08-24T15:21:52;-19245.25;;;37.87;26.23
60583;BME280;46415;47.536;19.066;2023-08-24T15:24:55;-19235.78;;;37.51;26.29
60583;BME280;46415;47.536;19.066;2023-08-24T15:27:57;-19247.63;;;37.96;26.19
60583;BME280;46415;47.536;19.066;2023-08-24T15:31:00;-19275.28;;;39.01;24.27
60583;BME280;46415;47.536;19.066;2023-08-24T15:34:03;-19311.66;;;40.40;22.96
60583;BME280;46415;47.536;19.066;2023-08-24T15:37:05;-19333.91;;;41.25;21.91
60583;BME280;46415;47.536;19.066;2023-08-24T15:40:09;-19353.22;;;41.99;21.12
60583;BME280;46415;47.536;19.066;2023-08-24T15:43:12;-19367.91;;;42.55;21.79
60583;BME280;46415;47.536;19.066;2023-08-24T15:46:15;-19391.69;;;43.46;20.42
60583;BME280;46415;47.536;19.066;2023-08-24T15:49:18;-19385.75;;;43.24;20.27
60583;BME280;46415;47.536;19.066;2023-08-24T15:52:20;-19387.44;;;43.30;20.98
60583;BME280;46415;47.536;19.066;2023-08-24T15:55:32;-19394.06;;;43.56;19.80